sensor_id;sensor_type;location;lat;lon;timestamp;P1;durP1;ratioP1;P2;durP2;ratioP2
5682;SDS011;2864;49.220;8.654;2022-09-01T00:01:44;4.10;;;3.10;;
5682;SDS011;2864;49.220;8.654;2022-09-01T00:04:14;6.20;;;3.57;;
5682;SDS011;2864;49.220;8.654;2022-09-01T00:06:41;3.30;;;3.00;;
5682;SDS011;2864;49.220;8.654;2022-09-01T00:09:09;4.90;;;3.30;;
5682;SDS011;2864;49.220;8.654;2022-09-01T00:11:38;6.73;;;3.33;;
5682;SDS011;2864;49.220;8.654;2022-09-01T00:14:05;3.80;;;3.03;;
5682;SDS011;2864;49.220;8.654;2022-09-01T00:16:32;4.50;;;3.80;;
5682;SDS011;2864;49.220;8.654;2022-09-01T00:18:58;3.80;;;3.40;;
5682;SDS011;2864;49.220;8.654;2022-09-01T00:21:26;6.10;;;3.70;;
5682;SDS011;2864;49.220;8.654;2022-09-01T00:23:54;3.97;;;3.57;;
5682;SDS011;2864;49.220;8.654;2022-09-01T00:26:19;3.50;;;3.03;;
5682;SDS011;2864;49.220;8.654;2022-09-01T00:28:45;4.90;;;3.40;;
5682;SDS011;2864;49.220;8.654;2022-09-01T00:31:11;4.10;;;3.30;;
5682;SDS011;2864;49.220;8.654;2022-09-01T00:33:39;5.07;;;3.80;;
5682;SDS011;2864;49.220;8.654;2022-09-01T00:36:05;5.10;;;3.50;;
5682;SDS011;2864;49.220;8.654;2022-09-01T00:38:31;4.30;;;3.40;;
5682;SDS011;2864;49.220;8.654;2022-09-01T00:40:58;5.13;;;3.60;;
5682;SDS011;2864;49.220;8.654;2022-09-01T00:43:35;4.00;;;3.60;;
5682;SDS011;2864;49.220;8.654;2022-09-01T00:46:07;3.97;;;3.50;;
5682;SDS011;2864;49.220;8.654;2022-09-01T00:48:35;5.17;;;3.70;;
5682;SDS011;2864;49.220;8.654;2022-09-01T00:51:02;3.87;;;3.47;;
5682;SDS011;2864;49.220;8.654;2022-09-01T00:53:28;5.97;;;3.67;;
5682;SDS011;2864;49.220;8.654;2022-09-01T00:55:54;4.33;;;3.93;;
5682;SDS011;2864;49.220;8.654;2022-09-01T00:58:20;4.10;;;3.70;;
5682;SDS011;2864;49.220;8.654;2022-09-01T01:00:46;4.37;;;3.93;;
5682;SDS011;2864;49.220;8.654;2022-09-01T01:03:15;4.70;;;4.20;;
5682;SDS011;2864;49.220;8.654;2022-09-01T01:05:48;4.87;;;3.60;;
5682;SDS011;2864;49.220;8.654;2022-09-01T01:08:24;4.40;;;3.60;;
5682;SDS011;2864;49.220;8.654;2022-09-01T01:10:58;4.27;;;3.87;;
5682;SDS011;2864;49.220;8.654;2022-09-01T01:13:51;4.40;;;4.00;;
5682;SDS011;2864;49.220;8.654;2022-09-01T01:16:23;6.20;;;4.27;;
5682;SDS011;2864;49.220;8.654;2022-09-01T01:22:15;5.40;;;4.17;;
5682;SDS011;2864;49.220;8.654;2022-09-01T01:28:22;5.07;;;4.13;;
5682;SDS011;2864;49.220;8.654;2022-09-01T01:31:01;7.60;;;4.17;;
5682;SDS011;2864;49.220;8.654;2022-09-01T01:33:37;5.20;;;4.70;;
5682;SDS011;2864;49.220;8.654;2022-09-01T01:38:47;5.50;;;5.00;;
5682;SDS011;2864;49.220;8.654;2022-09-01T01:41:14;7.40;;;5.13;;
5682;SDS011;2864;49.220;8.654;2022-09-01T01:43:43;7.93;;;4.63;;
5682;SDS011;2864;49.220;8.654;2022-09-01T01:46:10;5.47;;;4.90;;
5682;SDS011;2864;49.220;8.654;2022-09-01T01:48:39;5.13;;;4.63;;
5682;SDS011;2864;49.220;8.654;2022-09-01T01:51:06;5.47;;;4.97;;
5682;SDS011;2864;49.220;8.654;2022-09-01T01:53:33;5.53;;;4.90;;
5682;SDS011;2864;49.220;8.654;2022-09-01T01:55:58;7.00;;;5.03;;
5682;SDS011;2864;49.220;8.654;2022-09-01T01:58:25;7.47;;;5.40;;
5682;SDS011;2864;49.220;8.654;2022-09-01T02:00:53;7.00;;;5.13;;
5682;SDS011;2864;49.220;8.654;2022-09-01T02:03:22;5.67;;;5.03;;
5682;SDS011;2864;49.220;8.654;2022-09-01T02:05:51;5.87;;;5.17;;
5682;SDS011;2864;49.220;8.654;2022-09-01T02:08:17;5.93;;;5.37;;
5682;SDS011;2864;49.220;8.654;2022-09-01T02:10:46;6.03;;;5.27;;
5682;SDS011;2864;49.220;8.654;2022-09-01T02:13:15;5.90;;;5.30;;
5682;SDS011;2864;49.220;8.654;2022-09-01T02:15:47;6.67;;;5.53;;
5682;SDS011;2864;49.220;8.654;2022-09-01T02:18:31;10.47;;;5.10;;
5682;SDS011;2864;49.220;8.654;2022-09-01T02:21:00;7.27;;;5.10;;
5682;SDS011;2864;49.220;8.654;2022-09-01T02:23:27;8.37;;;5.77;;
5682;SDS011;2864;49.220;8.654;2022-09-01T02:25:54;5.73;;;5.20;;
5682;SDS011;2864;49.220;8.654;2022-09-01T02:28:26;5.83;;;5.30;;
5682;SDS011;2864;49.220;8.654;2022-09-01T02:30:55;6.13;;;5.53;;
5682;SDS011;2864;49.220;8.654;2022-09-01T02:33:21;6.73;;;6.03;;
5682;SDS011;2864;49.220;8.654;2022-09-01T02:35:49;6.73;;;6.07;;
5682;SDS011;2864;49.220;8.654;2022-09-01T02:38:17;6.73;;;5.47;;
5682;SDS011;2864;49.220;8.654;2022-09-01T02:40:44;9.03;;;5.90;;
5682;SDS011;2864;49.220;8.654;2022-09-01T02:43:14;7.73;;;5.77;;
5682;SDS011;2864;49.220;8.654;2022-09-01T02:45:44;6.70;;;5.97;;
5682;SDS011;2864;49.220;8.654;2022-09-01T02:48:29;6.73;;;6.07;;
5682;SDS011;2864;49.220;8.654;2022-09-01T02:51:00;9.17;;;6.23;;
5682;SDS011;2864;49.220;8.654;2022-09-01T02:53:30;6.70;;;6.10;;
5682;SDS011;2864;49.220;8.654;2022-09-01T02:55:58;7.57;;;6.13;;
5682;SDS011;2864;49.220;8.654;2022-09-01T02:58:26;8.97;;;6.40;;
5682;SDS011;2864;49.220;8.654;2022-09-01T03:00:54;7.20;;;6.50;;
5682;SDS011;2864;49.220;8.654;2022-09-01T03:03:21;6.97;;;6.23;;
5682;SDS011;2864;49.220;8.654;2022-09-01T03:05:49;8.60;;;6.80;;
5682;SDS011;2864;49.220;8.654;2022-09-01T03:08:20;9.07;;;6.87;;
5682;SDS011;2864;49.220;8.654;2022-09-01T03:10:48;7.40;;;6.70;;
5682;SDS011;2864;49.220;8.654;2022-09-01T03:13:18;7.57;;;6.87;;
5682;SDS011;2864;49.220;8.654;2022-09-01T03:15:46;8.13;;;6.80;;
5682;SDS011;2864;49.220;8.654;2022-09-01T03:18:14;7.40;;;6.70;;
5682;SDS011;2864;49.220;8.654;2022-09-01T03:20:41;7.73;;;7.03;;
5682;SDS011;2864;49.220;8.654;2022-09-01T03:23:09;8.07;;;6.97;;
5682;SDS011;2864;49.220;8.654;2022-09-01T03:25:39;8.43;;;7.63;;
5682;SDS011;2864;49.220;8.654;2022-09-01T03:28:06;8.57;;;7.77;;
5682;SDS011;2864;49.220;8.654;2022-09-01T03:30:34;9.07;;;7.37;;
5682;SDS011;2864;49.220;8.654;2022-09-01T03:33:04;9.73;;;7.87;;
5682;SDS011;2864;49.220;8.654;2022-09-01T03:35:30;8.47;;;7.67;;
5682;SDS011;2864;49.220;8.654;2022-09-01T03:37:57;11.93;;;7.87;;
5682;SDS011;2864;49.220;8.654;2022-09-01T03:40:24;9.23;;;8.00;;
5682;SDS011;2864;49.220;8.654;2022-09-01T03:42:52;8.97;;;8.07;;
5682;SDS011;2864;49.220;8.654;2022-09-01T03:45:19;9.20;;;8.23;;
5682;SDS011;2864;49.220;8.654;2022-09-01T03:47:46;8.83;;;7.93;;
5682;SDS011;2864;49.220;8.654;2022-09-01T03:50:16;9.13;;;8.07;;
5682;SDS011;2864;49.220;8.654;2022-09-01T03:52:47;10.43;;;8.53;;
5682;SDS011;2864;49.220;8.654;2022-09-01T03:55:15;11.07;;;8.57;;
5682;SDS011;2864;49.220;8.654;2022-09-01T03:57:51;9.80;;;8.67;;
5682;SDS011;2864;49.220;8.654;2022-09-01T04:00:31;9.63;;;8.63;;
5682;SDS011;2864;49.220;8.654;2022-09-01T04:03:04;10.93;;;9.73;;
5682;SDS011;2864;49.220;8.654;2022-09-01T04:05:32;12.63;;;9.30;;
5682;SDS011;2864;49.220;8.654;2022-09-01T04:08:00;11.23;;;9.33;;
5682;SDS011;2864;49.220;8.654;2022-09-01T04:10:29;11.17;;;10.03;;
5682;SDS011;2864;49.220;8.654;2022-09-01T04:12:58;10.50;;;9.40;;
5682;SDS011;2864;49.220;8.654;2022-09-01T04:15:25;10.87;;;9.37;;
5682;SDS011;2864;49.220;8.654;2022-09-01T04:17:51;11.10;;;9.90;;
5682;SDS011;2864;49.220;8.654;2022-09-01T04:20:45;10.80;;;9.80;;
5682;SDS011;2864;49.220;8.654;2022-09-01T04:25:44;11.53;;;10.37;;
5682;SDS011;2864;49.220;8.654;2022-09-01T04:28:15;11.93;;;10.53;;
5682;SDS011;2864;49.220;8.654;2022-09-01T04:30:56;12.57;;;10.33;;
5682;SDS011;2864;49.220;8.654;2022-09-01T04:33:23;12.30;;;10.30;;
5682;SDS011;2864;49.220;8.654;2022-09-01T04:35:51;13.13;;;11.27;;
5682;SDS011;2864;49.220;8.654;2022-09-01T04:38:20;13.97;;;10.80;;
5682;SDS011;2864;49.220;8.654;2022-09-01T04:40:48;12.13;;;10.37;;
5682;SDS011;2864;49.220;8.654;2022-09-01T04:43:14;12.43;;;11.23;;
5682;SDS011;2864;49.220;8.654;2022-09-01T04:45:40;12.67;;;11.47;;
5682;SDS011;2864;49.220;8.654;2022-09-01T04:48:07;13.07;;;11.67;;
5682;SDS011;2864;49.220;8.654;2022-09-01T04:50:33;13.93;;;12.20;;
5682;SDS011;2864;49.220;8.654;2022-09-01T04:53:02;13.67;;;11.67;;
5682;SDS011;2864;49.220;8.654;2022-09-01T04:55:30;14.40;;;12.10;;
5682;SDS011;2864;49.220;8.654;2022-09-01T04:57:56;16.57;;;12.30;;
5682;SDS011;2864;49.220;8.654;2022-09-01T05:00:24;17.20;;;12.93;;
5682;SDS011;2864;49.220;8.654;2022-09-01T05:02:55;16.90;;;12.93;;
5682;SDS011;2864;49.220;8.654;2022-09-01T05:05:28;14.53;;;12.53;;
5682;SDS011;2864;49.220;8.654;2022-09-01T05:08:04;15.83;;;13.07;;
5682;SDS011;2864;49.220;8.654;2022-09-01T05:10:31;15.60;;;12.43;;
5682;SDS011;2864;49.220;8.654;2022-09-01T05:13:01;16.83;;;13.63;;
5682;SDS011;2864;49.220;8.654;2022-09-01T05:15:33;14.93;;;13.37;;
5682;SDS011;2864;49.220;8.654;2022-09-01T05:18:01;16.17;;;12.87;;
5682;SDS011;2864;49.220;8.654;2022-09-01T05:20:35;16.07;;;13.20;;
5682;SDS011;2864;49.220;8.654;2022-09-01T05:23:02;13.33;;;11.93;;
5682;SDS011;2864;49.220;8.654;2022-09-01T05:25:29;13.60;;;11.03;;
5682;SDS011;2864;49.220;8.654;2022-09-01T05:27:54;13.60;;;12.30;;
5682;SDS011;2864;49.220;8.654;2022-09-01T05:30:21;15.73;;;12.27;;
5682;SDS011;2864;49.220;8.654;2022-09-01T05:32:48;16.80;;;12.67;;
5682;SDS011;2864;49.220;8.654;2022-09-01T05:35:14;14.53;;;12.67;;
5682;SDS011;2864;49.220;8.654;2022-09-01T05:37:40;14.63;;;13.13;;
5682;SDS011;2864;49.220;8.654;2022-09-01T05:40:07;13.27;;;11.53;;
5682;SDS011;2864;49.220;8.654;2022-09-01T05:42:39;12.60;;;11.23;;
5682;SDS011;2864;49.220;8.654;2022-09-01T05:45:06;14.87;;;11.60;;
5682;SDS011;2864;49.220;8.654;2022-09-01T05:47:34;13.97;;;11.80;;
5682;SDS011;2864;49.220;8.654;2022-09-01T05:50:01;14.77;;;11.87;;
5682;SDS011;2864;49.220;8.654;2022-09-01T05:52:28;13.17;;;11.80;;
5682;SDS011;2864;49.220;8.654;2022-09-01T05:54:57;13.33;;;11.70;;
5682;SDS011;2864;49.220;8.654;2022-09-01T05:57:25;14.10;;;12.00;;
5682;SDS011;2864;49.220;8.654;2022-09-01T05:59:50;15.27;;;12.00;;
5682;SDS011;2864;49.220;8.654;2022-09-01T06:02:18;13.27;;;11.87;;
5682;SDS011;2864;49.220;8.654;2022-09-01T06:04:46;14.47;;;11.60;;
5682;SDS011;2864;49.220;8.654;2022-09-01T06:07:13;14.80;;;11.97;;
5682;SDS011;2864;49.220;8.654;2022-09-01T06:09:41;14.20;;;11.33;;
5682;SDS011;2864;49.220;8.654;2022-09-01T06:12:12;12.70;;;11.40;;
5682;SDS011;2864;49.220;8.654;2022-09-01T06:14:42;13.60;;;11.17;;
5682;SDS011;2864;49.220;8.654;2022-09-01T06:17:09;12.70;;;10.73;;
5682;SDS011;2864;49.220;8.654;2022-09-01T06:23:00;11.40;;;10.07;;
5682;SDS011;2864;49.220;8.654;2022-09-01T06:25:26;11.90;;;10.57;;
5682;SDS011;2864;49.220;8.654;2022-09-01T06:27:54;10.53;;;9.53;;
5682;SDS011;2864;49.220;8.654;2022-09-01T06:30:20;12.23;;;11.13;;
5682;SDS011;2864;49.220;8.654;2022-09-01T06:32:46;11.13;;;9.93;;
5682;SDS011;2864;49.220;8.654;2022-09-01T06:35:14;13.33;;;9.90;;
5682;SDS011;2864;49.220;8.654;2022-09-01T06:37:40;11.13;;;10.03;;
5682;SDS011;2864;49.220;8.654;2022-09-01T06:40:09;11.90;;;10.70;;
5682;SDS011;2864;49.220;8.654;2022-09-01T06:42:45;14.17;;;12.53;;
5682;SDS011;2864;49.220;8.654;2022-09-01T06:45:14;13.90;;;12.37;;
5682;SDS011;2864;49.220;8.654;2022-09-01T06:47:41;14.07;;;12.17;;
5682;SDS011;2864;49.220;8.654;2022-09-01T06:50:10;14.07;;;12.57;;
5682;SDS011;2864;49.220;8.654;2022-09-01T06:52:42;13.67;;;12.27;;
5682;SDS011;2864;49.220;8.654;2022-09-01T06:55:12;13.17;;;11.77;;
5682;SDS011;2864;49.220;8.654;2022-09-01T06:57:39;12.77;;;11.07;;
5682;SDS011;2864;49.220;8.654;2022-09-01T07:00:16;13.43;;;11.13;;
5682;SDS011;2864;49.220;8.654;2022-09-01T07:02:45;15.67;;;10.77;;
5682;SDS011;2864;49.220;8.654;2022-09-01T07:05:12;14.17;;;11.43;;
5682;SDS011;2864;49.220;8.654;2022-09-01T07:07:41;12.70;;;10.57;;
5682;SDS011;2864;49.220;8.654;2022-09-01T07:10:10;13.07;;;10.87;;
5682;SDS011;2864;49.220;8.654;2022-09-01T07:12:39;10.90;;;9.87;;
5682;SDS011;2864;49.220;8.654;2022-09-01T07:15:10;12.80;;;10.63;;
5682;SDS011;2864;49.220;8.654;2022-09-01T07:17:39;10.47;;;9.37;;
5682;SDS011;2864;49.220;8.654;2022-09-01T07:20:06;12.30;;;9.93;;
5682;SDS011;2864;49.220;8.654;2022-09-01T07:22:34;12.33;;;10.00;;
5682;SDS011;2864;49.220;8.654;2022-09-01T07:24:59;12.37;;;9.27;;
5682;SDS011;2864;49.220;8.654;2022-09-01T07:27:26;13.30;;;9.20;;
5682;SDS011;2864;49.220;8.654;2022-09-01T07:29:53;10.07;;;9.07;;
5682;SDS011;2864;49.220;8.654;2022-09-01T07:32:21;10.33;;;9.33;;
5682;SDS011;2864;49.220;8.654;2022-09-01T07:34:47;9.90;;;8.90;;
5682;SDS011;2864;49.220;8.654;2022-09-01T07:37:13;10.13;;;8.73;;
5682;SDS011;2864;49.220;8.654;2022-09-01T07:39:39;9.70;;;8.70;;
5682;SDS011;2864;49.220;8.654;2022-09-01T07:42:09;10.00;;;9.03;;
5682;SDS011;2864;49.220;8.654;2022-09-01T07:44:36;9.10;;;8.20;;
5682;SDS011;2864;49.220;8.654;2022-09-01T07:47:02;11.33;;;8.20;;
5682;SDS011;2864;49.220;8.654;2022-09-01T07:49:32;8.87;;;7.97;;
5682;SDS011;2864;49.220;8.654;2022-09-01T07:51:58;9.77;;;8.77;;
5682;SDS011;2864;49.220;8.654;2022-09-01T07:54:27;10.23;;;9.23;;
5682;SDS011;2864;49.220;8.654;2022-09-01T07:56:54;9.67;;;8.67;;
5682;SDS011;2864;49.220;8.654;2022-09-01T07:59:20;11.07;;;8.33;;
5682;SDS011;2864;49.220;8.654;2022-09-01T08:01:46;9.90;;;8.90;;
5682;SDS011;2864;49.220;8.654;2022-09-01T08:04:12;9.60;;;8.70;;
5682;SDS011;2864;49.220;8.654;2022-09-01T08:06:38;9.30;;;8.40;;
5682;SDS011;2864;49.220;8.654;2022-09-01T08:09:03;8.57;;;7.77;;
5682;SDS011;2864;49.220;8.654;2022-09-01T08:11:32;8.90;;;8.00;;
5682;SDS011;2864;49.220;8.654;2022-09-01T08:13:58;8.90;;;8.00;;
5682;SDS011;2864;49.220;8.654;2022-09-01T08:16:28;10.13;;;8.20;;
5682;SDS011;2864;49.220;8.654;2022-09-01T08:18:55;11.40;;;8.10;;
5682;SDS011;2864;49.220;8.654;2022-09-01T08:21:22;8.40;;;7.60;;
5682;SDS011;2864;49.220;8.654;2022-09-01T08:23:52;10.70;;;7.37;;
5682;SDS011;2864;49.220;8.654;2022-09-01T08:26:20;7.70;;;6.90;;
5682;SDS011;2864;49.220;8.654;2022-09-01T08:28:47;8.30;;;7.43;;
5682;SDS011;2864;49.220;8.654;2022-09-01T08:31:16;8.03;;;6.40;;
5682;SDS011;2864;49.220;8.654;2022-09-01T08:33:43;7.87;;;6.57;;
5682;SDS011;2864;49.220;8.654;2022-09-01T08:36:11;8.40;;;7.00;;
5682;SDS011;2864;49.220;8.654;2022-09-01T08:38:39;8.90;;;6.60;;
5682;SDS011;2864;49.220;8.654;2022-09-01T08:41:12;7.17;;;6.43;;
5682;SDS011;2864;49.220;8.654;2022-09-01T08:44:02;9.83;;;6.97;;
5682;SDS011;2864;49.220;8.654;2022-09-01T08:47:10;8.37;;;6.93;;
5682;SDS011;2864;49.220;8.654;2022-09-01T08:49:38;8.60;;;7.07;;
5682;SDS011;2864;49.220;8.654;2022-09-01T08:57:58;6.87;;;6.17;;
5682;SDS011;2864;49.220;8.654;2022-09-01T09:00:26;7.83;;;6.03;;
5682;SDS011;2864;49.220;8.654;2022-09-01T09:08:32;6.53;;;5.90;;
5682;SDS011;2864;49.220;8.654;2022-09-01T09:17:00;6.10;;;5.53;;
5682;SDS011;2864;49.220;8.654;2022-09-01T09:19:30;6.30;;;5.70;;
5682;SDS011;2864;49.220;8.654;2022-09-01T09:21:59;6.83;;;5.73;;
5682;SDS011;2864;49.220;8.654;2022-09-01T09:29:46;7.63;;;5.70;;
5682;SDS011;2864;49.220;8.654;2022-09-01T09:32:17;6.60;;;5.70;;
5682;SDS011;2864;49.220;8.654;2022-09-01T09:34:44;6.23;;;5.73;;
5682;SDS011;2864;49.220;8.654;2022-09-01T09:42:34;6.27;;;5.67;;
5682;SDS011;2864;49.220;8.654;2022-09-01T09:45:03;8.00;;;5.70;;
5682;SDS011;2864;49.220;8.654;2022-09-01T09:47:51;7.23;;;5.23;;
5682;SDS011;2864;49.220;8.654;2022-09-01T09:50:26;5.90;;;5.40;;
5682;SDS011;2864;49.220;8.654;2022-09-01T09:53:08;9.17;;;5.63;;
5682;SDS011;2864;49.220;8.654;2022-09-01T09:55:56;8.47;;;5.47;;
5682;SDS011;2864;49.220;8.654;2022-09-01T09:58:33;6.83;;;5.27;;
5682;SDS011;2864;49.220;8.654;2022-09-01T10:01:03;7.13;;;5.40;;
5682;SDS011;2864;49.220;8.654;2022-09-01T10:03:51;5.57;;;5.00;;
5682;SDS011;2864;49.220;8.654;2022-09-01T10:11:49;5.90;;;5.00;;
5682;SDS011;2864;49.220;8.654;2022-09-01T10:14:19;8.50;;;5.47;;
5682;SDS011;2864;49.220;8.654;2022-09-01T10:17:11;5.57;;;4.80;;
5682;SDS011;2864;49.220;8.654;2022-09-01T10:19:52;5.17;;;4.70;;
5682;SDS011;2864;49.220;8.654;2022-09-01T10:22:28;4.20;;;3.80;;
5682;SDS011;2864;49.220;8.654;2022-09-01T10:24:55;4.95;;;4.28;;
5682;SDS011;2864;49.220;8.654;2022-09-01T10:27:23;5.75;;;4.35;;
5682;SDS011;2864;49.220;8.654;2022-09-01T10:32:28;5.68;;;4.25;;
5682;SDS011;2864;49.220;8.654;2022-09-01T10:35:05;5.05;;;4.47;;
5682;SDS011;2864;49.220;8.654;2022-09-01T10:37:34;6.30;;;4.43;;
5682;SDS011;2864;49.220;8.654;2022-09-01T10:42:59;4.80;;;4.07;;
5682;SDS011;2864;49.220;8.654;2022-09-01T10:45:43;4.07;;;3.70;;
5682;SDS011;2864;49.220;8.654;2022-09-01T10:48:22;5.40;;;4.50;;
5682;SDS011;2864;49.220;8.654;2022-09-01T10:51:33;5.30;;;4.10;;
5682;SDS011;2864;49.220;8.654;2022-09-01T10:53:39;7.05;;;4.15;;
5682;SDS011;2864;49.220;8.654;2022-09-01T10:56:54;4.50;;;4.07;;
5682;SDS011;2864;49.220;8.654;2022-09-01T11:15:05;4.80;;;3.60;;
5682;SDS011;2864;49.220;8.654;2022-09-01T11:20:23;4.10;;;3.80;;
5682;SDS011;2864;49.220;8.654;2022-09-01T11:25:47;4.35;;;3.78;;
5682;SDS011;2864;49.220;8.654;2022-09-01T11:34:11;6.22;;;4.10;;
5682;SDS011;2864;49.220;8.654;2022-09-01T11:36:36;4.70;;;3.55;;
5682;SDS011;2864;49.220;8.654;2022-09-01T11:41:51;4.53;;;4.10;;
5682;SDS011;2864;49.220;8.654;2022-09-01T11:52:22;5.75;;;4.20;;
5682;SDS011;2864;49.220;8.654;2022-09-01T11:54:50;4.20;;;3.58;;
5682;SDS011;2864;49.220;8.654;2022-09-01T11:57:17;4.05;;;3.75;;
5682;SDS011;2864;49.220;8.654;2022-09-01T11:59:48;4.32;;;3.88;;
5682;SDS011;2864;49.220;8.654;2022-09-01T12:02:21;5.20;;;4.15;;
5682;SDS011;2864;49.220;8.654;2022-09-01T12:04:50;5.68;;;4.40;;
5682;SDS011;2864;49.220;8.654;2022-09-01T12:10:18;5.25;;;4.00;;
5682;SDS011;2864;49.220;8.654;2022-09-01T12:12:45;4.18;;;3.80;;
5682;SDS011;2864;49.220;8.654;2022-09-01T12:15:23;4.38;;;3.97;;
5682;SDS011;2864;49.220;8.654;2022-09-01T12:17:50;5.65;;;3.47;;
5682;SDS011;2864;49.220;8.654;2022-09-01T12:20:27;6.38;;;3.78;;
5682;SDS011;2864;49.220;8.654;2022-09-01T12:22:57;4.72;;;3.78;;
5682;SDS011;2864;49.220;8.654;2022-09-01T12:27:58;5.45;;;3.40;;
5682;SDS011;2864;49.220;8.654;2022-09-01T12:30:25;4.90;;;3.83;;
5682;SDS011;2864;49.220;8.654;2022-09-01T12:32:52;4.35;;;3.47;;
5682;SDS011;2864;49.220;8.654;2022-09-01T12:35:20;5.05;;;3.92;;
5682;SDS011;2864;49.220;8.654;2022-09-01T12:37:50;4.47;;;4.07;;
5682;SDS011;2864;49.220;8.654;2022-09-01T12:40:32;6.38;;;4.00;;
5682;SDS011;2864;49.220;8.654;2022-09-01T12:42:59;4.10;;;3.70;;
5682;SDS011;2864;49.220;8.654;2022-09-01T12:45:35;4.40;;;3.70;;
5682;SDS011;2864;49.220;8.654;2022-09-01T12:48:03;4.90;;;3.80;;
5682;SDS011;2864;49.220;8.654;2022-09-01T12:52:59;8.40;;;3.63;;
5682;SDS011;2864;49.220;8.654;2022-09-01T12:55:30;5.50;;;3.42;;
5682;SDS011;2864;49.220;8.654;2022-09-01T12:58:01;6.53;;;3.72;;
5682;SDS011;2864;49.220;8.654;2022-09-01T13:00:32;6.93;;;3.65;;
5682;SDS011;2864;49.220;8.654;2022-09-01T13:03:19;3.97;;;3.42;;
5682;SDS011;2864;49.220;8.654;2022-09-01T13:05:46;7.38;;;3.47;;
5682;SDS011;2864;49.220;8.654;2022-09-01T13:08:20;8.57;;;3.50;;
5682;SDS011;2864;49.220;8.654;2022-09-01T13:11:12;8.95;;;3.03;;
5682;SDS011;2864;49.220;8.654;2022-09-01T13:13:38;2.78;;;2.58;;
5682;SDS011;2864;49.220;8.654;2022-09-01T13:16:04;3.42;;;3.13;;
5682;SDS011;2864;49.220;8.654;2022-09-01T13:18:36;4.28;;;3.08;;
5682;SDS011;2864;49.220;8.654;2022-09-01T13:21:03;9.65;;;3.33;;
5682;SDS011;2864;49.220;8.654;2022-09-01T13:23:30;4.65;;;3.13;;
5682;SDS011;2864;49.220;8.654;2022-09-01T13:25:56;5.03;;;2.83;;
5682;SDS011;2864;49.220;8.654;2022-09-01T13:28:23;6.35;;;3.10;;
5682;SDS011;2864;49.220;8.654;2022-09-01T13:31:00;3.22;;;2.60;;
5682;SDS011;2864;49.220;8.654;2022-09-01T13:33:34;4.82;;;2.80;;
5682;SDS011;2864;49.220;8.654;2022-09-01T13:36:01;4.43;;;2.88;;
5682;SDS011;2864;49.220;8.654;2022-09-01T13:38:27;4.05;;;2.80;;
5682;SDS011;2864;49.220;8.654;2022-09-01T13:40:52;3.10;;;2.80;;
5682;SDS011;2864;49.220;8.654;2022-09-01T13:43:19;6.53;;;3.20;;
5682;SDS011;2864;49.220;8.654;2022-09-01T13:45:46;5.03;;;2.70;;
5682;SDS011;2864;49.220;8.654;2022-09-01T13:48:12;7.22;;;3.03;;
5682;SDS011;2864;49.220;8.654;2022-09-01T13:50:39;3.30;;;3.00;;
5682;SDS011;2864;49.220;8.654;2022-09-01T13:53:05;18.25;;;4.00;;
5682;SDS011;2864;49.220;8.654;2022-09-01T13:55:32;6.28;;;3.20;;
5682;SDS011;2864;49.220;8.654;2022-09-01T13:58:05;7.95;;;3.78;;
5682;SDS011;2864;49.220;8.654;2022-09-01T14:00:31;14.43;;;3.20;;
5682;SDS011;2864;49.220;8.654;2022-09-01T14:03:00;5.50;;;3.03;;
5682;SDS011;2864;49.220;8.654;2022-09-01T14:05:32;5.15;;;3.00;;
5682;SDS011;2864;49.220;8.654;2022-09-01T14:07:59;4.28;;;2.72;;
5682;SDS011;2864;49.220;8.654;2022-09-01T14:10:26;5.30;;;3.17;;
5682;SDS011;2864;49.220;8.654;2022-09-01T14:12:53;4.97;;;2.92;;
5682;SDS011;2864;49.220;8.654;2022-09-01T14:15:19;19.52;;;3.75;;
5682;SDS011;2864;49.220;8.654;2022-09-01T14:17:48;8.02;;;2.80;;
5682;SDS011;2864;49.220;8.654;2022-09-01T14:20:27;8.68;;;2.78;;
5682;SDS011;2864;49.220;8.654;2022-09-01T14:22:56;5.22;;;2.88;;
5682;SDS011;2864;49.220;8.654;2022-09-01T14:25:22;3.53;;;2.45;;
5682;SDS011;2864;49.220;8.654;2022-09-01T14:27:48;2.95;;;2.55;;
5682;SDS011;2864;49.220;8.654;2022-09-01T14:30:21;2.60;;;2.22;;
5682;SDS011;2864;49.220;8.654;2022-09-01T14:32:48;5.38;;;2.83;;
5682;SDS011;2864;49.220;8.654;2022-09-01T14:35:15;5.57;;;2.40;;
5682;SDS011;2864;49.220;8.654;2022-09-01T14:37:41;4.28;;;2.42;;
5682;SDS011;2864;49.220;8.654;2022-09-01T14:40:10;2.65;;;2.20;;
5682;SDS011;2864;49.220;8.654;2022-09-01T14:42:40;3.35;;;2.53;;
5682;SDS011;2864;49.220;8.654;2022-09-01T14:45:08;3.30;;;2.55;;
5682;SDS011;2864;49.220;8.654;2022-09-01T14:47:36;4.20;;;2.60;;
5682;SDS011;2864;49.220;8.654;2022-09-01T14:50:03;2.72;;;2.50;;
5682;SDS011;2864;49.220;8.654;2022-09-01T14:52:29;3.83;;;2.25;;
5682;SDS011;2864;49.220;8.654;2022-09-01T14:54:54;4.32;;;2.67;;
5682;SDS011;2864;49.220;8.654;2022-09-01T14:57:20;5.82;;;2.40;;
5682;SDS011;2864;49.220;8.654;2022-09-01T14:59:45;4.45;;;2.60;;
5682;SDS011;2864;49.220;8.654;2022-09-01T15:02:12;2.88;;;2.40;;
5682;SDS011;2864;49.220;8.654;2022-09-01T15:04:37;6.75;;;2.60;;
5682;SDS011;2864;49.220;8.654;2022-09-01T15:07:03;3.05;;;2.47;;
5682;SDS011;2864;49.220;8.654;2022-09-01T15:09:30;3.47;;;2.70;;
5682;SDS011;2864;49.220;8.654;2022-09-01T15:11:56;4.00;;;2.42;;
5682;SDS011;2864;49.220;8.654;2022-09-01T15:14:21;3.92;;;2.47;;
5682;SDS011;2864;49.220;8.654;2022-09-01T15:16:47;4.15;;;2.40;;
5682;SDS011;2864;49.220;8.654;2022-09-01T15:19:13;2.58;;;2.13;;
5682;SDS011;2864;49.220;8.654;2022-09-01T15:21:40;6.20;;;2.28;;
5682;SDS011;2864;49.220;8.654;2022-09-01T15:24:07;2.72;;;2.45;;
5682;SDS011;2864;49.220;8.654;2022-09-01T15:26:34;2.53;;;2.30;;
5682;SDS011;2864;49.220;8.654;2022-09-01T15:29:00;2.45;;;2.25;;
5682;SDS011;2864;49.220;8.654;2022-09-01T15:31:26;3.28;;;2.50;;
5682;SDS011;2864;49.220;8.654;2022-09-01T15:33:56;3.67;;;2.40;;
5682;SDS011;2864;49.220;8.654;2022-09-01T15:36:23;3.78;;;2.63;;
5682;SDS011;2864;49.220;8.654;2022-09-01T15:38:49;3.17;;;2.30;;
5682;SDS011;2864;49.220;8.654;2022-09-01T15:41:16;4.22;;;2.40;;
5682;SDS011;2864;49.220;8.654;2022-09-01T15:43:42;3.60;;;2.65;;
5682;SDS011;2864;49.220;8.654;2022-09-01T15:46:08;2.75;;;2.55;;
5682;SDS011;2864;49.220;8.654;2022-09-01T15:48:35;4.47;;;2.85;;
5682;SDS011;2864;49.220;8.654;2022-09-01T15:51:25;3.08;;;2.85;;
5682;SDS011;2864;49.220;8.654;2022-09-01T15:53:51;5.10;;;3.00;;
5682;SDS011;2864;49.220;8.654;2022-09-01T15:56:19;3.72;;;2.90;;
5682;SDS011;2864;49.220;8.654;2022-09-01T15:58:46;3.60;;;2.78;;
5682;SDS011;2864;49.220;8.654;2022-09-01T16:01:14;3.45;;;2.50;;
5682;SDS011;2864;49.220;8.654;2022-09-01T16:03:40;4.30;;;2.60;;
5682;SDS011;2864;49.220;8.654;2022-09-01T16:06:06;2.80;;;2.50;;
5682;SDS011;2864;49.220;8.654;2022-09-01T16:08:32;3.33;;;2.83;;
5682;SDS011;2864;49.220;8.654;2022-09-01T16:10:58;4.05;;;2.80;;
5682;SDS011;2864;49.220;8.654;2022-09-01T16:13:26;4.63;;;3.05;;
5682;SDS011;2864;49.220;8.654;2022-09-01T16:15:55;3.65;;;2.83;;
5682;SDS011;2864;49.220;8.654;2022-09-01T16:23:38;5.90;;;2.63;;
5682;SDS011;2864;49.220;8.654;2022-09-01T16:26:07;4.63;;;2.92;;
5682;SDS011;2864;49.220;8.654;2022-09-01T16:28:35;3.75;;;2.63;;
5682;SDS011;2864;49.220;8.654;2022-09-01T16:31:03;2.72;;;2.42;;
5682;SDS011;2864;49.220;8.654;2022-09-01T16:33:38;2.70;;;2.50;;
5682;SDS011;2864;49.220;8.654;2022-09-01T16:36:23;5.57;;;2.40;;
5682;SDS011;2864;49.220;8.654;2022-09-01T16:39:06;5.13;;;2.70;;
5682;SDS011;2864;49.220;8.654;2022-09-01T16:44:25;4.15;;;2.80;;
5682;SDS011;2864;49.220;8.654;2022-09-01T16:47:23;3.35;;;2.60;;
5682;SDS011;2864;49.220;8.654;2022-09-01T16:52:59;5.35;;;3.30;;
5682;SDS011;2864;49.220;8.654;2022-09-01T17:01:38;4.78;;;2.55;;
5682;SDS011;2864;49.220;8.654;2022-09-01T17:04:38;5.47;;;2.60;;
5682;SDS011;2864;49.220;8.654;2022-09-01T17:15:13;5.45;;;3.97;;
5682;SDS011;2864;49.220;8.654;2022-09-01T17:17:52;5.25;;;2.85;;
5682;SDS011;2864;49.220;8.654;2022-09-01T17:20:24;3.80;;;2.78;;
5682;SDS011;2864;49.220;8.654;2022-09-01T17:22:55;4.32;;;2.70;;
5682;SDS011;2864;49.220;8.654;2022-09-01T17:25:27;3.05;;;2.70;;
5682;SDS011;2864;49.220;8.654;2022-09-01T17:28:00;5.13;;;3.05;;
5682;SDS011;2864;49.220;8.654;2022-09-01T17:31:00;3.83;;;2.47;;
5682;SDS011;2864;49.220;8.654;2022-09-01T17:37:33;6.20;;;2.77;;